This is the latest recevied weather packets stored in our database for station/object KMEZ. If no packets are shown the sender has not sent any weather packets the latest 10 day(s).
| Time | Temp. | Humidity | Pressure | Rain* | Wind** | Luminosity | Snow |
|---|---|---|---|---|---|---|---|
| 1777408414 | 22.78° C | 88% | 1010.2 hPa | - | - | - | - |
| 1777407942 | 22.78° C | 88% | 1010.2 hPa | - | - | - | - |
| 1777407220 | 22.78° C | 88% | 1010.5 hPa | - | - | - | - |
| 1777406619 | 22.78° C | 88% | 1010.5 hPa | - | - | - | - |
| 1777406013 | 22.78° C | 83% | 1010.8 hPa | - | - | - | - |
| 1777405420 | 22.78° C | 83% | 1010.8 hPa | - | - | - | - |
| 1777404821 | 25° C | 69% | 1011.9 hPa | - | - | - | - |
| 1777404221 | 25° C | 69% | 1011.9 hPa | - | - | - | - |
| 1777403618 | 25.56° C | 74% | 1011.9 hPa | - | - | - | - |
| 1777403020 | 25.56° C | 74% | 1011.9 hPa | - | - | - | - |
| 1777402420 | 25° C | 73% | 1011.5 hPa | - | - | - | - |
| 1777401817 | 25° C | 73% | 1011.5 hPa | - | - | - | - |
| 1777401218 | 23.89° C | 83% | 1010.8 hPa | - | - | - | - |
| 1777400615 | 23.89° C | 83% | 1010.8 hPa | - | - | - | - |
| 1777400016 | 21.67° C | 88% | 1012.5 hPa | - | - | - | - |
| 1777399414 | 21.67° C | 88% | 1012.5 hPa | - | - | - | - |
| 1777398815 | 21.67° C | 94% | 1013.5 hPa | - | - | - | - |
| 1777398217 | 21.67° C | 94% | 1013.5 hPa | - | - | - | - |
| 1777397619 | 22.78° C | 94% | 1013.2 hPa | - | - | - | - |
| 1777397021 | 22.78° C | 94% | 1013.2 hPa | - | - | - | - |
| 1777396422 | 22.78° C | 94% | 1013.9 hPa | - | - | - | - |
| 1777395814 | 22.78° C | 94% | 1013.9 hPa | - | - | - | - |
| 1777395217 | 22.78° C | 94% | 1014.2 hPa | - | - | - | - |
| 1777394616 | 22.78° C | 94% | 1014.2 hPa | - | - | - | - |
| 1777394014 | 22.78° C | 94% | 1013.5 hPa | - | - | - | - |
* Rain since midnight (hover to see other rain measurements)
** Current wind speed in m/s (hover to see current wind gust speed)